Armstrong, Alabama
Current Conditions -  °F | °C
As of 11:55 PM on Thursday 27 Nov 2014 (Local Time) from KAUO Reporting Station
Clear Clear  
Wind Chill: -3°   Ceiling: Unl
Heat Index:   Visibility: 10mi
Dew Point: -4°   Wind: 6mph
Humidity: 75%   Direction: 320°NW
Pressure: 30.43"   Gusts: NA
Location:  32.2227°N, 85.6394°W
Report Text: KAUO 280555Z AUTO 32005KT 10SM CLR 00/M04 A3043 RMK AO1 10040 21010 52003
Loading
Personal Weather Stations






























Interactive Weather Map New forecast layout! Learn more

10-Day Weather Forecast

Advertisements
Track Severe Weather on mobile